Nuiqsut Airport Nuiqsut US
ICAO: PAQT
IATA:
Category: Medium
Scheduled Services:

Elevation: 38 ft
TransAlt. 0 ft.

Airport Communications:
ANCHORAGE CNTR:119.4
ASOS:122.5
CTAF:122.8
DEADHORSE RDO:122.5

PAQT Zoom In..

Runways:

(A) RW 05 length 4589 ft width 100 ft
---- / hdg 49

(B) RW 23 length 4589 ft width 100 ft
---- / hdg 229

Location; PAQT
Day. 23 / Time. 21.53 Zulu
* Altimeter: 30.36
* Temperature: -28° c. 18.4°f.
* Wind from: 250° Speed 03 kn.
Dewpoint: -31° c.
Visibility: 5 Statute Miles.
Clouds: Scattered 5500 ft.
Clouds: Overcast 9500 ft.
Conditions: Mist.

PAQT 232153Z AUTO 25003KT 5SM BR SCT055 OVC095 M28/M31 A3036 RMK AO2 UPE12B33E40SNB12E33 SLP284 P0000 T12831306 TSNO


Wind From 250°
Speed 03 kn.

YouTube Music Video
 
jpsmedia.com for Web Design  worldairports.se 2018   terms of use